sensor_id;sensor_type;location;lat;lon;timestamp;P1;durP1;ratioP1;P2;durP2;ratioP2
56423;SDS011;42329;43.516;3.684;2022-10-12T00:02:05;7.30;;;5.28;;
56423;SDS011;42329;43.516;3.684;2022-10-12T00:04:33;6.22;;;4.90;;
56423;SDS011;42329;43.516;3.684;2022-10-12T00:07:00;6.45;;;5.10;;
56423;SDS011;42329;43.516;3.684;2022-10-12T00:09:28;5.43;;;4.90;;
56423;SDS011;42329;43.516;3.684;2022-10-12T00:11:56;6.72;;;4.82;;
56423;SDS011;42329;43.516;3.684;2022-10-12T00:14:23;6.50;;;4.72;;
56423;SDS011;42329;43.516;3.684;2022-10-12T00:16:52;8.00;;;5.68;;
56423;SDS011;42329;43.516;3.684;2022-10-12T00:19:20;5.85;;;4.60;;
56423;SDS011;42329;43.516;3.684;2022-10-12T00:21:47;5.72;;;4.65;;
56423;SDS011;42329;43.516;3.684;2022-10-12T00:24:15;7.88;;;4.82;;
56423;SDS011;42329;43.516;3.684;2022-10-12T00:26:42;5.57;;;4.70;;
56423;SDS011;42329;43.516;3.684;2022-10-12T00:29:10;5.75;;;4.18;;
56423;SDS011;42329;43.516;3.684;2022-10-12T00:31:37;6.38;;;4.38;;
56423;SDS011;42329;43.516;3.684;2022-10-12T00:34:06;7.65;;;4.80;;
56423;SDS011;42329;43.516;3.684;2022-10-12T00:36:34;8.07;;;4.57;;
56423;SDS011;42329;43.516;3.684;2022-10-12T00:39:02;5.88;;;4.22;;
56423;SDS011;42329;43.516;3.684;2022-10-12T00:41:32;5.82;;;4.03;;
56423;SDS011;42329;43.516;3.684;2022-10-12T00:43:59;6.05;;;4.05;;
56423;SDS011;42329;43.516;3.684;2022-10-12T00:46:28;6.10;;;4.20;;
56423;SDS011;42329;43.516;3.684;2022-10-12T00:48:57;7.38;;;3.75;;
56423;SDS011;42329;43.516;3.684;2022-10-12T00:51:26;4.68;;;3.90;;
56423;SDS011;42329;43.516;3.684;2022-10-12T00:53:55;4.72;;;4.00;;
56423;SDS011;42329;43.516;3.684;2022-10-12T00:56:24;6.22;;;4.63;;
56423;SDS011;42329;43.516;3.684;2022-10-12T00:58:53;6.88;;;4.20;;
56423;SDS011;42329;43.516;3.684;2022-10-12T01:01:21;4.85;;;4.30;;
56423;SDS011;42329;43.516;3.684;2022-10-12T01:03:49;6.07;;;3.78;;
56423;SDS011;42329;43.516;3.684;2022-10-12T01:06:16;6.05;;;3.83;;
56423;SDS011;42329;43.516;3.684;2022-10-12T01:08:46;10.18;;;3.90;;
56423;SDS011;42329;43.516;3.684;2022-10-12T01:11:13;10.27;;;4.75;;
56423;SDS011;42329;43.516;3.684;2022-10-12T01:13:41;8.13;;;4.68;;
56423;SDS011;42329;43.516;3.684;2022-10-12T01:16:10;6.93;;;4.30;;
56423;SDS011;42329;43.516;3.684;2022-10-12T01:18:40;4.78;;;3.55;;
56423;SDS011;42329;43.516;3.684;2022-10-12T01:21:12;5.63;;;4.53;;
56423;SDS011;42329;43.516;3.684;2022-10-12T01:29:21;6.03;;;4.20;;
56423;SDS011;42329;43.516;3.684;2022-10-12T01:31:53;6.78;;;4.50;;
56423;SDS011;42329;43.516;3.684;2022-10-12T01:34:25;5.93;;;4.30;;
56423;SDS011;42329;43.516;3.684;2022-10-12T01:36:55;5.82;;;4.47;;
56423;SDS011;42329;43.516;3.684;2022-10-12T01:39:28;7.20;;;4.07;;
56423;SDS011;42329;43.516;3.684;2022-10-12T01:41:57;5.63;;;4.25;;
56423;SDS011;42329;43.516;3.684;2022-10-12T01:44:26;7.28;;;4.13;;
56423;SDS011;42329;43.516;3.684;2022-10-12T01:46:55;6.90;;;4.10;;
56423;SDS011;42329;43.516;3.684;2022-10-12T01:49:24;5.25;;;3.92;;
56423;SDS011;42329;43.516;3.684;2022-10-12T01:57:14;7.97;;;4.15;;
56423;SDS011;42329;43.516;3.684;2022-10-12T01:59:48;7.80;;;4.15;;
56423;SDS011;42329;43.516;3.684;2022-10-12T02:02:21;5.25;;;3.80;;
56423;SDS011;42329;43.516;3.684;2022-10-12T02:04:54;5.38;;;4.15;;
56423;SDS011;42329;43.516;3.684;2022-10-12T02:07:25;4.95;;;4.25;;
56423;SDS011;42329;43.516;3.684;2022-10-12T02:09:53;5.45;;;4.18;;
56423;SDS011;42329;43.516;3.684;2022-10-12T02:12:24;7.17;;;4.53;;
56423;SDS011;42329;43.516;3.684;2022-10-12T02:14:55;6.40;;;4.00;;
56423;SDS011;42329;43.516;3.684;2022-10-12T02:17:26;5.53;;;3.90;;
56423;SDS011;42329;43.516;3.684;2022-10-12T02:19:55;6.53;;;4.20;;
56423;SDS011;42329;43.516;3.684;2022-10-12T02:22:23;5.45;;;3.88;;
56423;SDS011;42329;43.516;3.684;2022-10-12T02:24:52;6.07;;;4.00;;
56423;SDS011;42329;43.516;3.684;2022-10-12T02:27:22;7.18;;;4.13;;
56423;SDS011;42329;43.516;3.684;2022-10-12T02:29:50;5.97;;;4.22;;
56423;SDS011;42329;43.516;3.684;2022-10-12T02:32:19;7.15;;;4.05;;
56423;SDS011;42329;43.516;3.684;2022-10-12T02:34:51;4.80;;;4.28;;
56423;SDS011;42329;43.516;3.684;2022-10-12T02:37:22;5.55;;;3.85;;
56423;SDS011;42329;43.516;3.684;2022-10-12T02:39:54;5.40;;;4.18;;
56423;SDS011;42329;43.516;3.684;2022-10-12T02:42:23;5.55;;;4.00;;
56423;SDS011;42329;43.516;3.684;2022-10-12T02:44:51;4.80;;;4.00;;
56423;SDS011;42329;43.516;3.684;2022-10-12T02:47:20;4.60;;;3.88;;
56423;SDS011;42329;43.516;3.684;2022-10-12T02:49:50;8.75;;;3.75;;
56423;SDS011;42329;43.516;3.684;2022-10-12T02:52:18;4.93;;;3.72;;
56423;SDS011;42329;43.516;3.684;2022-10-12T02:54:45;4.68;;;3.85;;
56423;SDS011;42329;43.516;3.684;2022-10-12T02:57:13;5.28;;;3.83;;
56423;SDS011;42329;43.516;3.684;2022-10-12T02:59:41;5.10;;;3.58;;
56423;SDS011;42329;43.516;3.684;2022-10-12T03:02:08;3.58;;;3.28;;
56423;SDS011;42329;43.516;3.684;2022-10-12T03:04:36;6.03;;;4.00;;
56423;SDS011;42329;43.516;3.684;2022-10-12T03:07:05;4.82;;;3.78;;
56423;SDS011;42329;43.516;3.684;2022-10-12T03:09:32;6.82;;;3.97;;
56423;SDS011;42329;43.516;3.684;2022-10-12T03:12:00;6.95;;;3.78;;
56423;SDS011;42329;43.516;3.684;2022-10-12T03:14:27;5.15;;;3.80;;
56423;SDS011;42329;43.516;3.684;2022-10-12T03:16:57;6.25;;;4.53;;
56423;SDS011;42329;43.516;3.684;2022-10-12T03:19:24;6.90;;;3.90;;
56423;SDS011;42329;43.516;3.684;2022-10-12T03:21:52;6.13;;;4.05;;
56423;SDS011;42329;43.516;3.684;2022-10-12T03:24:21;5.68;;;3.80;;
56423;SDS011;42329;43.516;3.684;2022-10-12T03:26:48;6.30;;;3.88;;
56423;SDS011;42329;43.516;3.684;2022-10-12T03:29:16;9.55;;;3.75;;
56423;SDS011;42329;43.516;3.684;2022-10-12T03:31:43;4.57;;;3.90;;
56423;SDS011;42329;43.516;3.684;2022-10-12T03:34:11;5.43;;;3.50;;
56423;SDS011;42329;43.516;3.684;2022-10-12T03:36:38;4.28;;;3.80;;
56423;SDS011;42329;43.516;3.684;2022-10-12T03:39:06;6.97;;;4.30;;
56423;SDS011;42329;43.516;3.684;2022-10-12T03:41:35;6.30;;;4.20;;
56423;SDS011;42329;43.516;3.684;2022-10-12T03:44:03;6.85;;;4.40;;
56423;SDS011;42329;43.516;3.684;2022-10-12T03:46:31;6.00;;;4.10;;
56423;SDS011;42329;43.516;3.684;2022-10-12T03:48:58;7.65;;;4.35;;
56423;SDS011;42329;43.516;3.684;2022-10-12T03:51:26;4.18;;;3.78;;
56423;SDS011;42329;43.516;3.684;2022-10-12T03:53:53;7.38;;;4.20;;
56423;SDS011;42329;43.516;3.684;2022-10-12T03:56:21;8.80;;;4.20;;
56423;SDS011;42329;43.516;3.684;2022-10-12T03:58:50;6.50;;;3.47;;
56423;SDS011;42329;43.516;3.684;2022-10-12T04:01:17;4.40;;;3.88;;
56423;SDS011;42329;43.516;3.684;2022-10-12T04:03:45;5.00;;;3.80;;
56423;SDS011;42329;43.516;3.684;2022-10-12T04:06:12;6.22;;;3.67;;
56423;SDS011;42329;43.516;3.684;2022-10-12T04:08:40;5.07;;;3.65;;
56423;SDS011;42329;43.516;3.684;2022-10-12T04:11:07;6.22;;;4.40;;
56423;SDS011;42329;43.516;3.684;2022-10-12T04:13:35;4.63;;;3.67;;
56423;SDS011;42329;43.516;3.684;2022-10-12T04:16:05;7.05;;;4.07;;
56423;SDS011;42329;43.516;3.684;2022-10-12T04:18:33;4.68;;;3.50;;
56423;SDS011;42329;43.516;3.684;2022-10-12T04:21:00;5.60;;;3.83;;
56423;SDS011;42329;43.516;3.684;2022-10-12T04:23:28;6.15;;;3.83;;
56423;SDS011;42329;43.516;3.684;2022-10-12T04:25:56;5.72;;;4.03;;
56423;SDS011;42329;43.516;3.684;2022-10-12T04:28:23;4.93;;;4.18;;
56423;SDS011;42329;43.516;3.684;2022-10-12T04:30:51;6.38;;;4.10;;
56423;SDS011;42329;43.516;3.684;2022-10-12T04:33:20;5.22;;;4.13;;
56423;SDS011;42329;43.516;3.684;2022-10-12T04:35:47;8.23;;;4.43;;
56423;SDS011;42329;43.516;3.684;2022-10-12T04:38:15;4.40;;;3.90;;
56423;SDS011;42329;43.516;3.684;2022-10-12T04:40:44;7.20;;;3.85;;
56423;SDS011;42329;43.516;3.684;2022-10-12T04:43:12;10.02;;;3.80;;
56423;SDS011;42329;43.516;3.684;2022-10-12T04:45:40;7.55;;;3.63;;
56423;SDS011;42329;43.516;3.684;2022-10-12T04:48:08;18.25;;;4.35;;
56423;SDS011;42329;43.516;3.684;2022-10-12T04:50:37;6.95;;;3.55;;
56423;SDS011;42329;43.516;3.684;2022-10-12T04:53:04;8.07;;;3.80;;
56423;SDS011;42329;43.516;3.684;2022-10-12T04:55:32;10.13;;;4.68;;
56423;SDS011;42329;43.516;3.684;2022-10-12T04:58:00;7.75;;;4.35;;
56423;SDS011;42329;43.516;3.684;2022-10-12T05:00:27;5.78;;;4.32;;
56423;SDS011;42329;43.516;3.684;2022-10-12T05:02:55;8.07;;;4.20;;
56423;SDS011;42329;43.516;3.684;2022-10-12T05:05:22;9.57;;;5.15;;
56423;SDS011;42329;43.516;3.684;2022-10-12T05:07:51;11.38;;;5.55;;
56423;SDS011;42329;43.516;3.684;2022-10-12T05:10:19;8.35;;;4.50;;
56423;SDS011;42329;43.516;3.684;2022-10-12T05:12:46;6.18;;;4.25;;
56423;SDS011;42329;43.516;3.684;2022-10-12T05:15:14;5.82;;;4.22;;
56423;SDS011;42329;43.516;3.684;2022-10-12T05:17:41;12.43;;;4.45;;
56423;SDS011;42329;43.516;3.684;2022-10-12T05:20:09;6.50;;;4.78;;
56423;SDS011;42329;43.516;3.684;2022-10-12T05:22:37;6.95;;;4.18;;
56423;SDS011;42329;43.516;3.684;2022-10-12T05:25:07;11.73;;;4.10;;
56423;SDS011;42329;43.516;3.684;2022-10-12T05:27:34;7.63;;;4.20;;
56423;SDS011;42329;43.516;3.684;2022-10-12T05:30:02;4.75;;;4.20;;
56423;SDS011;42329;43.516;3.684;2022-10-12T05:32:30;7.82;;;3.85;;
56423;SDS011;42329;43.516;3.684;2022-10-12T05:34:58;5.57;;;4.55;;
56423;SDS011;42329;43.516;3.684;2022-10-12T05:37:25;5.18;;;3.88;;
56423;SDS011;42329;43.516;3.684;2022-10-12T05:39:53;8.40;;;4.28;;
56423;SDS011;42329;43.516;3.684;2022-10-12T05:42:22;7.57;;;4.10;;
56423;SDS011;42329;43.516;3.684;2022-10-12T05:44:49;5.85;;;4.03;;
56423;SDS011;42329;43.516;3.684;2022-10-12T05:47:17;9.90;;;4.20;;
56423;SDS011;42329;43.516;3.684;2022-10-12T05:49:44;4.50;;;3.80;;
56423;SDS011;42329;43.516;3.684;2022-10-12T05:52:12;9.55;;;4.38;;
56423;SDS011;42329;43.516;3.684;2022-10-12T05:54:39;5.38;;;4.00;;
56423;SDS011;42329;43.516;3.684;2022-10-12T05:57:07;6.32;;;3.72;;
56423;SDS011;42329;43.516;3.684;2022-10-12T05:59:36;7.25;;;3.75;;
56423;SDS011;42329;43.516;3.684;2022-10-12T06:02:03;6.97;;;4.82;;
56423;SDS011;42329;43.516;3.684;2022-10-12T06:04:31;11.18;;;3.90;;
56423;SDS011;42329;43.516;3.684;2022-10-12T06:06:59;6.97;;;4.18;;
56423;SDS011;42329;43.516;3.684;2022-10-12T06:09:26;9.27;;;4.28;;
56423;SDS011;42329;43.516;3.684;2022-10-12T06:11:54;8.32;;;4.25;;
56423;SDS011;42329;43.516;3.684;2022-10-12T06:14:21;6.53;;;4.18;;
56423;SDS011;42329;43.516;3.684;2022-10-12T06:16:50;5.63;;;4.22;;
56423;SDS011;42329;43.516;3.684;2022-10-12T06:19:18;12.05;;;4.35;;
56423;SDS011;42329;43.516;3.684;2022-10-12T06:21:45;6.65;;;4.20;;
56423;SDS011;42329;43.516;3.684;2022-10-12T06:24:13;6.43;;;4.05;;
56423;SDS011;42329;43.516;3.684;2022-10-12T06:26:40;10.98;;;4.15;;
56423;SDS011;42329;43.516;3.684;2022-10-12T06:29:08;8.55;;;4.15;;
56423;SDS011;42329;43.516;3.684;2022-10-12T06:31:36;8.02;;;3.88;;
56423;SDS011;42329;43.516;3.684;2022-10-12T06:34:05;6.47;;;4.10;;
56423;SDS011;42329;43.516;3.684;2022-10-12T06:36:33;9.38;;;4.18;;
56423;SDS011;42329;43.516;3.684;2022-10-12T06:39:01;7.05;;;4.22;;
56423;SDS011;42329;43.516;3.684;2022-10-12T06:41:28;5.93;;;3.92;;
56423;SDS011;42329;43.516;3.684;2022-10-12T06:43:56;6.70;;;4.13;;
56423;SDS011;42329;43.516;3.684;2022-10-12T06:46:24;12.80;;;3.92;;
56423;SDS011;42329;43.516;3.684;2022-10-12T06:48:51;8.25;;;4.35;;
56423;SDS011;42329;43.516;3.684;2022-10-12T06:51:21;5.00;;;4.43;;
56423;SDS011;42329;43.516;3.684;2022-10-12T06:53:48;9.75;;;4.75;;
56423;SDS011;42329;43.516;3.684;2022-10-12T06:56:16;8.38;;;4.30;;
56423;SDS011;42329;43.516;3.684;2022-10-12T06:58:44;9.02;;;4.10;;
56423;SDS011;42329;43.516;3.684;2022-10-12T07:01:12;8.18;;;4.30;;
56423;SDS011;42329;43.516;3.684;2022-10-12T07:03:40;6.82;;;4.20;;
56423;SDS011;42329;43.516;3.684;2022-10-12T07:06:09;12.90;;;5.05;;
56423;SDS011;42329;43.516;3.684;2022-10-12T07:08:39;18.15;;;6.45;;
56423;SDS011;42329;43.516;3.684;2022-10-12T07:11:08;29.48;;;13.73;;
56423;SDS011;42329;43.516;3.684;2022-10-12T07:13:36;29.67;;;14.32;;
56423;SDS011;42329;43.516;3.684;2022-10-12T07:16:04;30.38;;;15.68;;
56423;SDS011;42329;43.516;3.684;2022-10-12T07:18:32;25.00;;;12.63;;
56423;SDS011;42329;43.516;3.684;2022-10-12T07:21:03;29.73;;;15.10;;
56423;SDS011;42329;43.516;3.684;2022-10-12T07:23:31;22.33;;;11.70;;
56423;SDS011;42329;43.516;3.684;2022-10-12T07:26:03;13.38;;;7.35;;
56423;SDS011;42329;43.516;3.684;2022-10-12T07:28:33;10.98;;;6.30;;
56423;SDS011;42329;43.516;3.684;2022-10-12T07:31:01;10.50;;;5.82;;
56423;SDS011;42329;43.516;3.684;2022-10-12T07:33:32;10.50;;;6.63;;
56423;SDS011;42329;43.516;3.684;2022-10-12T07:36:00;11.60;;;6.80;;
56423;SDS011;42329;43.516;3.684;2022-10-12T07:38:29;15.77;;;6.95;;
56423;SDS011;42329;43.516;3.684;2022-10-12T07:40:58;9.45;;;6.07;;
56423;SDS011;42329;43.516;3.684;2022-10-12T07:43:27;8.32;;;6.00;;
56423;SDS011;42329;43.516;3.684;2022-10-12T07:45:55;8.27;;;5.82;;
56423;SDS011;42329;43.516;3.684;2022-10-12T07:48:23;11.60;;;5.68;;
56423;SDS011;42329;43.516;3.684;2022-10-12T07:50:50;28.95;;;7.90;;
56423;SDS011;42329;43.516;3.684;2022-10-12T07:53:18;23.85;;;8.80;;
56423;SDS011;42329;43.516;3.684;2022-10-12T07:55:45;28.25;;;11.23;;
56423;SDS011;42329;43.516;3.684;2022-10-12T07:58:13;15.80;;;7.32;;
56423;SDS011;42329;43.516;3.684;2022-10-12T08:00:42;19.30;;;10.13;;
56423;SDS011;42329;43.516;3.684;2022-10-12T08:03:10;25.42;;;10.90;;
56423;SDS011;42329;43.516;3.684;2022-10-12T08:05:38;22.00;;;10.95;;
56423;SDS011;42329;43.516;3.684;2022-10-12T08:08:06;28.55;;;9.70;;
56423;SDS011;42329;43.516;3.684;2022-10-12T08:10:34;21.17;;;9.02;;
56423;SDS011;42329;43.516;3.684;2022-10-12T08:13:02;16.25;;;6.72;;
56423;SDS011;42329;43.516;3.684;2022-10-12T08:15:30;13.55;;;6.38;;
56423;SDS011;42329;43.516;3.684;2022-10-12T08:17:59;16.60;;;7.45;;
56423;SDS011;42329;43.516;3.684;2022-10-12T08:20:26;14.52;;;8.18;;
56423;SDS011;42329;43.516;3.684;2022-10-12T08:22:54;18.92;;;8.02;;
56423;SDS011;42329;43.516;3.684;2022-10-12T08:25:22;11.70;;;5.85;;
56423;SDS011;42329;43.516;3.684;2022-10-12T08:27:49;16.02;;;6.30;;
56423;SDS011;42329;43.516;3.684;2022-10-12T08:30:17;12.05;;;5.70;;
56423;SDS011;42329;43.516;3.684;2022-10-12T08:32:50;12.93;;;5.35;;
56423;SDS011;42329;43.516;3.684;2022-10-12T08:35:20;13.15;;;5.18;;
56423;SDS011;42329;43.516;3.684;2022-10-12T08:37:47;16.35;;;5.70;;
56423;SDS011;42329;43.516;3.684;2022-10-12T08:40:15;8.10;;;4.90;;
56423;SDS011;42329;43.516;3.684;2022-10-12T08:42:47;11.68;;;4.82;;
56423;SDS011;42329;43.516;3.684;2022-10-12T08:48:05;11.65;;;4.22;;
56423;SDS011;42329;43.516;3.684;2022-10-12T08:50:37;12.05;;;4.55;;
56423;SDS011;42329;43.516;3.684;2022-10-12T08:53:08;11.07;;;3.75;;
56423;SDS011;42329;43.516;3.684;2022-10-12T08:55:40;8.30;;;4.00;;
56423;SDS011;42329;43.516;3.684;2022-10-12T08:58:10;10.00;;;3.72;;
56423;SDS011;42329;43.516;3.684;2022-10-12T09:03:11;8.18;;;4.05;;
56423;SDS011;42329;43.516;3.684;2022-10-12T09:05:42;11.15;;;3.65;;
56423;SDS011;42329;43.516;3.684;2022-10-12T09:08:13;11.25;;;3.67;;
56423;SDS011;42329;43.516;3.684;2022-10-12T09:10:44;9.40;;;3.75;;
56423;SDS011;42329;43.516;3.684;2022-10-12T09:13:19;9.65;;;3.92;;
56423;SDS011;42329;43.516;3.684;2022-10-12T09:15:48;7.53;;;3.45;;
56423;SDS011;42329;43.516;3.684;2022-10-12T09:18:19;10.32;;;3.20;;
56423;SDS011;42329;43.516;3.684;2022-10-12T09:20:49;16.92;;;6.72;;
56423;SDS011;42329;43.516;3.684;2022-10-12T09:23:22;9.60;;;3.90;;
56423;SDS011;42329;43.516;3.684;2022-10-12T09:25:50;10.23;;;3.20;;
56423;SDS011;42329;43.516;3.684;2022-10-12T09:28:20;7.47;;;3.33;;
56423;SDS011;42329;43.516;3.684;2022-10-12T09:30:52;6.25;;;3.00;;
56423;SDS011;42329;43.516;3.684;2022-10-12T09:33:23;7.90;;;2.85;;
56423;SDS011;42329;43.516;3.684;2022-10-12T09:35:53;6.13;;;3.08;;
56423;SDS011;42329;43.516;3.684;2022-10-12T09:38:21;9.73;;;3.25;;
56423;SDS011;42329;43.516;3.684;2022-10-12T09:40:48;12.52;;;3.08;;
56423;SDS011;42329;43.516;3.684;2022-10-12T09:43:16;7.78;;;3.13;;
56423;SDS011;42329;43.516;3.684;2022-10-12T09:45:44;6.43;;;2.80;;
56423;SDS011;42329;43.516;3.684;2022-10-12T09:48:14;7.00;;;3.08;;
56423;SDS011;42329;43.516;3.684;2022-10-12T09:50:43;9.93;;;2.70;;
56423;SDS011;42329;43.516;3.684;2022-10-12T09:53:13;8.02;;;2.53;;
56423;SDS011;42329;43.516;3.684;2022-10-12T09:55:42;7.35;;;2.33;;
56423;SDS011;42329;43.516;3.684;2022-10-12T09:58:18;5.82;;;2.55;;
56423;SDS011;42329;43.516;3.684;2022-10-12T10:00:50;9.57;;;3.58;;
56423;SDS011;42329;43.516;3.684;2022-10-12T10:03:36;6.25;;;2.88;;
56423;SDS011;42329;43.516;3.684;2022-10-12T10:06:04;8.93;;;2.90;;
56423;SDS011;42329;43.516;3.684;2022-10-12T10:08:40;7.45;;;2.67;;
56423;SDS011;42329;43.516;3.684;2022-10-12T10:11:12;12.32;;;2.72;;
56423;SDS011;42329;43.516;3.684;2022-10-12T10:13:44;9.68;;;3.15;;
56423;SDS011;42329;43.516;3.684;2022-10-12T10:16:12;4.75;;;2.95;;
56423;SDS011;42329;43.516;3.684;2022-10-12T10:18:41;10.18;;;2.20;;
56423;SDS011;42329;43.516;3.684;2022-10-12T10:21:09;4.00;;;2.45;;
56423;SDS011;42329;43.516;3.684;2022-10-12T10:23:41;8.95;;;2.83;;
56423;SDS011;42329;43.516;3.684;2022-10-12T10:26:10;16.88;;;8.95;;
56423;SDS011;42329;43.516;3.684;2022-10-12T10:28:39;8.70;;;3.42;;
56423;SDS011;42329;43.516;3.684;2022-10-12T10:31:15;9.63;;;2.67;;
56423;SDS011;42329;43.516;3.684;2022-10-12T10:33:48;11.77;;;4.00;;
56423;SDS011;42329;43.516;3.684;2022-10-12T10:36:29;7.88;;;2.47;;
56423;SDS011;42329;43.516;3.684;2022-10-12T10:39:00;7.88;;;2.75;;
56423;SDS011;42329;43.516;3.684;2022-10-12T10:41:30;6.30;;;2.38;;
56423;SDS011;42329;43.516;3.684;2022-10-12T10:43:59;25.00;;;3.25;;
56423;SDS011;42329;43.516;3.684;2022-10-12T10:46:27;10.30;;;3.17;;
56423;SDS011;42329;43.516;3.684;2022-10-12T10:48:56;8.18;;;2.30;;
56423;SDS011;42329;43.516;3.684;2022-10-12T10:51:39;9.73;;;3.95;;
56423;SDS011;42329;43.516;3.684;2022-10-12T10:54:19;9.07;;;2.70;;
56423;SDS011;42329;43.516;3.684;2022-10-12T10:56:51;11.18;;;3.67;;
56423;SDS011;42329;43.516;3.684;2022-10-12T10:59:20;14.00;;;3.90;;
56423;SDS011;42329;43.516;3.684;2022-10-12T11:01:51;8.93;;;3.08;;
56423;SDS011;42329;43.516;3.684;2022-10-12T11:04:21;8.15;;;2.90;;
56423;SDS011;42329;43.516;3.684;2022-10-12T11:06:51;7.95;;;3.15;;
56423;SDS011;42329;43.516;3.684;2022-10-12T11:09:22;9.88;;;3.58;;
56423;SDS011;42329;43.516;3.684;2022-10-12T11:11:55;7.78;;;3.10;;
56423;SDS011;42329;43.516;3.684;2022-10-12T11:14:25;8.52;;;3.25;;
56423;SDS011;42329;43.516;3.684;2022-10-12T11:16:54;12.27;;;3.22;;
56423;SDS011;42329;43.516;3.684;2022-10-12T11:19:25;10.90;;;2.70;;
56423;SDS011;42329;43.516;3.684;2022-10-12T11:21:57;7.32;;;2.58;;
56423;SDS011;42329;43.516;3.684;2022-10-12T11:24:27;5.20;;;2.78;;
56423;SDS011;42329;43.516;3.684;2022-10-12T11:26:56;8.80;;;3.13;;
56423;SDS011;42329;43.516;3.684;2022-10-12T11:29:28;5.68;;;2.20;;
56423;SDS011;42329;43.516;3.684;2022-10-12T11:31:57;10.30;;;2.63;;
56423;SDS011;42329;43.516;3.684;2022-10-12T11:34:27;9.15;;;3.28;;
56423;SDS011;42329;43.516;3.684;2022-10-12T11:36:57;7.13;;;2.83;;
56423;SDS011;42329;43.516;3.684;2022-10-12T11:39:27;9.60;;;3.70;;
56423;SDS011;42329;43.516;3.684;2022-10-12T11:41:56;4.78;;;2.30;;
56423;SDS011;42329;43.516;3.684;2022-10-12T11:44:26;7.00;;;2.35;;
56423;SDS011;42329;43.516;3.684;2022-10-12T11:46:57;12.93;;;2.70;;
56423;SDS011;42329;43.516;3.684;2022-10-12T11:49:27;12.85;;;3.15;;
56423;SDS011;42329;43.516;3.684;2022-10-12T11:51:57;7.47;;;2.40;;
56423;SDS011;42329;43.516;3.684;2022-10-12T11:54:29;6.63;;;2.95;;
56423;SDS011;42329;43.516;3.684;2022-10-12T11:56:57;5.65;;;2.72;;
56423;SDS011;42329;43.516;3.684;2022-10-12T11:59:28;9.75;;;2.67;;
56423;SDS011;42329;43.516;3.684;2022-10-12T12:02:02;11.35;;;3.15;;
56423;SDS011;42329;43.516;3.684;2022-10-12T12:04:35;7.18;;;2.70;;
56423;SDS011;42329;43.516;3.684;2022-10-12T12:07:04;7.80;;;3.00;;
56423;SDS011;42329;43.516;3.684;2022-10-12T12:09:41;9.02;;;2.70;;
56423;SDS011;42329;43.516;3.684;2022-10-12T12:12:13;8.60;;;2.63;;
56423;SDS011;42329;43.516;3.684;2022-10-12T12:14:46;8.43;;;2.67;;
56423;SDS011;42329;43.516;3.684;2022-10-12T12:17:20;5.97;;;2.40;;
56423;SDS011;42329;43.516;3.684;2022-10-12T12:19:49;8.40;;;2.92;;
56423;SDS011;42329;43.516;3.684;2022-10-12T12:22:18;8.50;;;2.65;;
56423;SDS011;42329;43.516;3.684;2022-10-12T12:24:53;8.18;;;2.50;;
56423;SDS011;42329;43.516;3.684;2022-10-12T12:27:23;9.60;;;2.90;;
56423;SDS011;42329;43.516;3.684;2022-10-12T12:29:55;11.20;;;2.38;;
56423;SDS011;42329;43.516;3.684;2022-10-12T12:32:24;9.57;;;2.75;;
56423;SDS011;42329;43.516;3.684;2022-10-12T12:34:53;9.00;;;3.40;;
56423;SDS011;42329;43.516;3.684;2022-10-12T12:37:21;5.05;;;2.17;;
56423;SDS011;42329;43.516;3.684;2022-10-12T12:39:50;5.22;;;2.58;;
56423;SDS011;42329;43.516;3.684;2022-10-12T12:42:22;9.75;;;3.30;;
56423;SDS011;42329;43.516;3.684;2022-10-12T12:47:18;8.05;;;2.78;;
56423;SDS011;42329;43.516;3.684;2022-10-12T12:49:47;7.18;;;2.30;;
56423;SDS011;42329;43.516;3.684;2022-10-12T12:52:18;11.90;;;3.50;;
56423;SDS011;42329;43.516;3.684;2022-10-12T12:55:11;12.88;;;3.13;;
56423;SDS011;42329;43.516;3.684;2022-10-12T12:57:49;8.50;;;2.88;;
56423;SDS011;42329;43.516;3.684;2022-10-12T13:00:21;8.57;;;2.80;;
56423;SDS011;42329;43.516;3.684;2022-10-12T13:08:24;8.98;;;3.50;;
56423;SDS011;42329;43.516;3.684;2022-10-12T13:11:01;8.05;;;3.00;;
56423;SDS011;42329;43.516;3.684;2022-10-12T13:16:28;11.23;;;3.42;;
56423;SDS011;42329;43.516;3.684;2022-10-12T13:19:01;5.65;;;2.80;;
56423;SDS011;42329;43.516;3.684;2022-10-12T13:21:30;12.55;;;2.78;;
56423;SDS011;42329;43.516;3.684;2022-10-12T13:24:00;5.40;;;2.53;;
56423;SDS011;42329;43.516;3.684;2022-10-12T13:26:29;11.55;;;2.67;;
56423;SDS011;42329;43.516;3.684;2022-10-12T13:28:57;11.52;;;3.00;;
56423;SDS011;42329;43.516;3.684;2022-10-12T13:31:30;11.38;;;2.75;;
56423;SDS011;42329;43.516;3.684;2022-10-12T13:34:00;7.95;;;3.33;;
56423;SDS011;42329;43.516;3.684;2022-10-12T13:36:32;6.88;;;3.22;;
56423;SDS011;42329;43.516;3.684;2022-10-12T13:39:06;7.43;;;3.30;;
56423;SDS011;42329;43.516;3.684;2022-10-12T13:41:34;12.15;;;3.55;;
56423;SDS011;42329;43.516;3.684;2022-10-12T13:44:03;14.05;;;5.35;;
56423;SDS011;42329;43.516;3.684;2022-10-12T13:46:36;13.65;;;5.85;;
56423;SDS011;42329;43.516;3.684;2022-10-12T13:49:11;16.73;;;9.05;;
56423;SDS011;42329;43.516;3.684;2022-10-12T13:51:39;15.35;;;4.53;;
56423;SDS011;42329;43.516;3.684;2022-10-12T13:54:12;6.85;;;4.15;;
56423;SDS011;42329;43.516;3.684;2022-10-12T13:56:40;12.55;;;3.45;;
56423;SDS011;42329;43.516;3.684;2022-10-12T13:59:11;8.13;;;3.88;;
56423;SDS011;42329;43.516;3.684;2022-10-12T14:01:52;12.80;;;3.15;;
56423;SDS011;42329;43.516;3.684;2022-10-12T14:04:20;12.10;;;3.60;;
56423;SDS011;42329;43.516;3.684;2022-10-12T14:06:50;7.68;;;3.42;;
56423;SDS011;42329;43.516;3.684;2022-10-12T14:09:20;12.05;;;3.75;;
56423;SDS011;42329;43.516;3.684;2022-10-12T14:11:48;18.17;;;4.25;;
56423;SDS011;42329;43.516;3.684;2022-10-12T14:14:17;35.45;;;22.50;;
56423;SDS011;42329;43.516;3.684;2022-10-12T14:16:45;22.95;;;12.50;;
56423;SDS011;42329;43.516;3.684;2022-10-12T14:19:18;16.70;;;6.00;;
56423;SDS011;42329;43.516;3.684;2022-10-12T14:21:46;9.60;;;4.15;;
56423;SDS011;42329;43.516;3.684;2022-10-12T14:24:14;10.15;;;3.75;;
56423;SDS011;42329;43.516;3.684;2022-10-12T14:26:43;9.52;;;3.17;;
56423;SDS011;42329;43.516;3.684;2022-10-12T14:29:27;8.73;;;3.70;;
56423;SDS011;42329;43.516;3.684;2022-10-12T14:31:56;10.13;;;4.00;;
56423;SDS011;42329;43.516;3.684;2022-10-12T14:34:38;8.70;;;4.28;;
56423;SDS011;42329;43.516;3.684;2022-10-12T14:37:18;11.27;;;3.47;;
56423;SDS011;42329;43.516;3.684;2022-10-12T14:39:48;11.73;;;3.28;;
56423;SDS011;42329;43.516;3.684;2022-10-12T14:42:17;8.68;;;3.20;;
56423;SDS011;42329;43.516;3.684;2022-10-12T14:44:45;8.75;;;3.08;;
56423;SDS011;42329;43.516;3.684;2022-10-12T14:47:15;11.73;;;3.78;;
56423;SDS011;42329;43.516;3.684;2022-10-12T14:49:46;10.77;;;4.30;;
56423;SDS011;42329;43.516;3.684;2022-10-12T14:52:16;10.88;;;3.38;;
56423;SDS011;42329;43.516;3.684;2022-10-12T14:54:44;11.35;;;4.03;;
56423;SDS011;42329;43.516;3.684;2022-10-12T14:57:12;9.88;;;4.53;;
56423;SDS011;42329;43.516;3.684;2022-10-12T14:59:40;10.30;;;4.32;;
56423;SDS011;42329;43.516;3.684;2022-10-12T15:02:11;13.30;;;4.82;;
56423;SDS011;42329;43.516;3.684;2022-10-12T15:07:09;13.73;;;3.72;;
56423;SDS011;42329;43.516;3.684;2022-10-12T15:09:38;13.38;;;3.58;;
56423;SDS011;42329;43.516;3.684;2022-10-12T15:12:06;7.25;;;4.00;;
56423;SDS011;42329;43.516;3.684;2022-10-12T15:14:34;9.77;;;3.40;;
56423;SDS011;42329;43.516;3.684;2022-10-12T15:17:01;8.85;;;3.58;;
56423;SDS011;42329;43.516;3.684;2022-10-12T15:19:29;11.93;;;4.05;;
56423;SDS011;42329;43.516;3.684;2022-10-12T15:21:57;11.10;;;4.60;;
56423;SDS011;42329;43.516;3.684;2022-10-12T15:24:26;10.30;;;4.15;;
56423;SDS011;42329;43.516;3.684;2022-10-12T15:26:53;7.75;;;3.67;;